Wetterdaten: Woche 20.01.20 - 26.01.20 (KW4)
Datum Zeit Temp. A. Feuchte A. Luftdruck Regen Wind Richtung Taupunkt Windchill Windben
20.01.2020 00:00 1,9 C 82 % 1039,5 hPa 0,3 l/m 1,0 km/h N -0,9 C 1,9 C 8,0 km/h
20.01.2020 01:00 1,8 C 82 % 1040,1 hPa 0,3 l/m 1,0 km/h N -0,9 C 1,8 C 10,1 km/h
20.01.2020 02:00 1,8 C 82 % 1040,7 hPa 0,5 l/m 1,1 km/h N -1,0 C 1,8 C 8,4 km/h
20.01.2020 03:00 1,8 C 82 % 1041,1 hPa 0,0 l/m 1,1 km/h N -0,9 C 1,8 C 10,9 km/h
20.01.2020 04:00 1,8 C 82 % 1041,5 hPa 0,3 l/m 1,9 km/h N -0,9 C 1,8 C 10,1 km/h
20.01.2020 05:00 1,8 C 82 % 1041,9 hPa 0,0 l/m 0,9 km/h N -0,9 C 1,8 C 8,1 km/h
20.01.2020 06:00 1,8 C 82 % 1042,8 hPa 0,3 l/m 1,2 km/h N -0,9 C 1,8 C 8,8 km/h
20.01.2020 07:00 1,9 C 82 % 1043,4 hPa 0,0 l/m 2,0 km/h N -0,9 C 1,9 C 10,5 km/h
20.01.2020 08:00 2,1 C 82 % 1044,2 hPa 0,0 l/m 2,3 km/h N -0,6 C 2,1 C 9,7 km/h
20.01.2020 09:00 2,4 C 82 % 1044,8 hPa 0,0 l/m 3,9 km/h N -0,4 C 2,4 C 14,1 km/h
20.01.2020 10:00 2,7 C 82 % 1045,7 hPa 0,0 l/m 3,7 km/h N -0,1 C 2,7 C 12,5 km/h
20.01.2020 11:00 3,2 C 82 % 1045,6 hPa 0,0 l/m 5,5 km/h N 0,5 C 3,2 C 12,9 km/h
20.01.2020 12:00 3,6 C 83 % 1045,7 hPa 0,0 l/m 3,9 km/h N 0,9 C 3,6 C 10,9 km/h
20.01.2020 13:00 4,1 C 82 % 1045,7 hPa 0,0 l/m 2,6 km/h N 1,3 C 4,1 C 15,3 km/h
20.01.2020 14:00 4,1 C 81 % 1045,8 hPa 0,0 l/m 2,0 km/h N 1,1 C 4,1 C 10,1 km/h
20.01.2020 15:00 3,9 C 82 % 1046,0 hPa 0,0 l/m 0,3 km/h N 1,0 C 3,9 C 5,2 km/h
20.01.2020 16:00 3,3 C 82 % 1046,0 hPa 0,0 l/m 0,4 km/h N 0,4 C 3,3 C 5,2 km/h
20.01.2020 17:00 2,6 C 82 % 1046,3 hPa 0,0 l/m 0,0 km/h N -0,2 C 2,6 C 0,0 km/h
20.01.2020 18:00 2,1 C 83 % 1046,6 hPa 0,0 l/m 0,0 km/h N -0,6 C 2,1 C 0,0 km/h
20.01.2020 19:00 0,6 C 83 % 1046,9 hPa 0,0 l/m 0,0 km/h N -2,0 C 0,6 C 0,0 km/h
20.01.2020 20:00 -0,9 C 83 % 1047,1 hPa 0,0 l/m 0,0 km/h N -3,4 C -0,9 C 0,0 km/h
20.01.2020 21:00 -1,4 C 83 % 1047,1 hPa 0,0 l/m 0,0 km/h N -3,9 C -1,4 C 0,0 km/h
20.01.2020 22:00 -1,6 C 83 % 1046,9 hPa 0,0 l/m 0,0 km/h N -4,1 C -1,6 C 0,0 km/h
20.01.2020 23:00 -0,8 C 82 % 1046,7 hPa 0,0 l/m 0,0 km/h N -3,5 C -0,8 C 0,0 km/h
21.01.2020 00:00 -0,4 C 82 % 1046,4 hPa 0,0 l/m 0,0 km/h N -3,1 C -0,4 C 0,0 km/h
21.01.2020 01:00 -0,4 C 82 % 1046,1 hPa 0,0 l/m 0,0 km/h N -3,1 C -0,4 C 0,0 km/h
21.01.2020 02:00 -1,0 C 82 % 1045,8 hPa 0,0 l/m 0,0 km/h N -3,6 C -1,0 C 0,0 km/h
21.01.2020 03:00 -1,8 C 82 % 1045,1 hPa 0,0 l/m 0,0 km/h N -4,5 C -1,8 C 0,0 km/h
21.01.2020 04:00 -2,1 C 82 % 1044,8 hPa 0,0 l/m 0,0 km/h N -4,7 C -2,1 C 0,0 km/h
21.01.2020 05:00 -2,5 C 82 % 1044,3 hPa 0,0 l/m 0,0 km/h N -5,2 C -2,5 C 0,0 km/h
21.01.2020 06:00 -3,1 C 82 % 1044,1 hPa 0,0 l/m 0,0 km/h N -5,7 C -3,1 C 0,0 km/h
21.01.2020 07:00 -2,5 C 82 % 1044,1 hPa 0,0 l/m 0,0 km/h N -5,2 C -2,5 C 0,0 km/h
21.01.2020 08:00 -1,9 C 82 % 1044,1 hPa 0,0 l/m 0,0 km/h N -4,6 C -1,9 C 0,0 km/h
21.01.2020 09:00 -1,6 C 82 % 1044,1 hPa 0,0 l/m 0,0 km/h N -4,3 C -1,6 C 0,0 km/h
21.01.2020 10:00 -1,6 C 82 % 1043,9 hPa 0,0 l/m 0,0 km/h N -4,2 C -1,6 C 0,0 km/h
21.01.2020 11:00 -0,8 C 83 % 1043,5 hPa 0,0 l/m 0,0 km/h N -3,4 C -0,8 C 0,0 km/h
21.01.2020 12:00 -0,4 C 83 % 1043,1 hPa 0,0 l/m 0,0 km/h N -3,0 C -0,4 C 0,0 km/h
21.01.2020 13:00 -0,3 C 83 % 1042,5 hPa 0,0 l/m 0,0 km/h N -2,8 C -0,3 C 0,0 km/h
21.01.2020 14:00 -0,2 C 83 % 1042,0 hPa 0,0 l/m 0,0 km/h N -2,7 C -0,2 C 0,0 km/h
21.01.2020 15:00 -0,3 C 83 % 1041,7 hPa 0,0 l/m 0,0 km/h N -2,8 C -0,3 C 0,0 km/h
21.01.2020 16:00 -0,4 C 83 % 1041,5 hPa 0,0 l/m 0,0 km/h N -2,9 C -0,4 C 0,0 km/h
21.01.2020 17:00 -0,6 C 83 % 1041,2 hPa 0,0 l/m 0,0 km/h N -3,1 C -0,6 C 0,0 km/h
21.01.2020 18:00 -0,7 C 83 % 1041,0 hPa 0,0 l/m 0,0 km/h N -3,2 C -0,7 C 0,0 km/h
21.01.2020 19:00 -0,7 C 83 % 1040,4 hPa 0,0 l/m 0,0 km/h N -3,2 C -0,7 C 0,0 km/h
21.01.2020 20:00 -0,7 C 83 % 1039,9 hPa 0,0 l/m 0,0 km/h N -3,2 C -0,7 C 0,0 km/h
21.01.2020 21:00 -0,7 C 83 % 1039,7 hPa 0,0 l/m 0,0 km/h N -3,2 C -0,7 C 0,0 km/h
21.01.2020 22:00 -0,6 C 83 % 1039,3 hPa 0,0 l/m 0,0 km/h N -3,1 C -0,6 C 0,0 km/h
21.01.2020 23:00 -0,7 C 83 % 1038,9 hPa 0,0 l/m 0,1 km/h N -3,2 C -0,7 C 1,2 km/h
22.01.2020 00:00 -0,7 C 83 % 1038,1 hPa 0,0 l/m 0,0 km/h N -3,2 C -0,7 C 0,0 km/h
22.01.2020 01:00 -0,8 C 83 % 1037,3 hPa 0,0 l/m 0,0 km/h N -3,3 C -0,8 C 0,8 km/h
22.01.2020 02:00 -0,9 C 83 % 1036,6 hPa 0,0 l/m 0,0 km/h N -3,4 C -0,9 C 1,2 km/h
22.01.2020 03:00 -1,0 C 83 % 1035,8 hPa 0,0 l/m 0,0 km/h N -3,5 C -1,0 C 0,0 km/h
22.01.2020 04:00 -1,4 C 83 % 1035,2 hPa 0,0 l/m 2,1 km/h N -4,0 C -1,4 C 7,6 km/h
22.01.2020 05:00 -1,7 C 82 % 1034,6 hPa 0,0 l/m 0,6 km/h N -4,4 C -1,7 C 5,2 km/h
22.01.2020 06:00 -1,6 C 82 % 1034,2 hPa 0,0 l/m 0,6 km/h N -4,2 C -1,6 C 5,3 km/h
22.01.2020 07:00 -1,4 C 82 % 1034,3 hPa 0,0 l/m 0,4 km/h N -4,1 C -1,4 C 3,6 km/h
22.01.2020 08:00 -1,0 C 82 % 1034,4 hPa 0,0 l/m 3,5 km/h N -3,6 C -1,3 C 10,4 km/h
22.01.2020 09:00 -0,9 C 82 % 1034,0 hPa 0,0 l/m 3,9 km/h N -3,6 C -0,9 C 6,0 km/h
22.01.2020 10:00 -0,9 C 82 % 1033,4 hPa 0,0 l/m 3,2 km/h N -3,6 C -0,9 C 3,2 km/h
22.01.2020 11:00 -0,9 C 82 % 1031,9 hPa 0,0 l/m 3,2 km/h N -3,6 C -0,9 C 3,2 km/h
22.01.2020 12:00 -0,9 C 82 % 1031,1 hPa 0,0 l/m 3,2 km/h N -3,6 C -0,9 C 3,2 km/h
22.01.2020 13:00 -0,9 C 82 % 1030,7 hPa 0,0 l/m 3,2 km/h N -3,6 C -0,9 C 3,2 km/h
22.01.2020 14:00 0,0 C 0 % 1030,6 hPa 0,0 l/m 0,0 km/h N -60,0 C 0,0 C 0,0 km/h
22.01.2020 15:00 0,0 C 0 % 1030,1 hPa 0,0 l/m 0,0 km/h N -60,0 C 0,0 C 0,0 km/h
22.01.2020 16:00 0,0 C 0 % 1029,6 hPa 0,0 l/m 0,0 km/h N -60,0 C 0,0 C 0,0 km/h
22.01.2020 17:00 0,0 C 0 % 1030,5 hPa 0,0 l/m 0,0 km/h N -60,0 C 0,0 C 0,0 km/h
22.01.2020 18:00 0,0 C 0 % 1030,9 hPa 0,0 l/m 0,0 km/h N -60,0 C 0,0 C 0,0 km/h
22.01.2020 19:00 0,0 C 0 % 1032,3 hPa 0,0 l/m 0,0 km/h N -60,0 C 0,0 C 0,0 km/h
22.01.2020 20:00 0,0 C 0 % 1033,3 hPa 0,0 l/m 0,0 km/h N -60,0 C 0,0 C 0,0 km/h
22.01.2020 21:00 0,0 C 0 % 1033,3 hPa 0,0 l/m 0,0 km/h N -60,0 C 0,0 C 0,0 km/h
22.01.2020 22:00 0,0 C 0 % 1033,3 hPa 0,0 l/m 0,0 km/h N -60,0 C 0,0 C 0,0 km/h
22.01.2020 23:00 0,0 C 0 % 1033,7 hPa 0,0 l/m 0,0 km/h N -60,0 C 0,0 C 0,0 km/h
23.01.2020 00:00 0,0 C 0 % 1033,9 hPa 0,0 l/m 0,0 km/h N -60,0 C 0,0 C 0,0 km/h
23.01.2020 01:00 0,0 C 0 % 1034,0 hPa 0,0 l/m 0,0 km/h N -60,0 C 0,0 C 0,0 km/h
23.01.2020 02:00 0,0 C 0 % 1034,1 hPa 0,0 l/m 0,0 km/h N -60,0 C 0,0 C 0,0 km/h
23.01.2020 03:00 0,0 C 0 % 1034,1 hPa 0,0 l/m 0,0 km/h N -60,0 C 0,0 C 0,0 km/h
23.01.2020 04:00 0,0 C 0 % 1034,1 hPa 0,0 l/m 0,0 km/h N -60,0 C 0,0 C 0,0 km/h
23.01.2020 05:00 0,0 C 0 % 1034,1 hPa 0,0 l/m 0,0 km/h N -60,0 C 0,0 C 0,0 km/h
23.01.2020 06:00 0,0 C 0 % 1034,3 hPa 0,0 l/m 0,0 km/h N -60,0 C 0,0 C 0,0 km/h
23.01.2020 07:00 0,0 C 0 % 1034,6 hPa 0,0 l/m 0,0 km/h N -60,0 C 0,0 C 0,0 km/h
23.01.2020 08:00 0,0 C 0 % 1035,0 hPa 0,0 l/m 0,0 km/h N -60,0 C 0,0 C 0,0 km/h
23.01.2020 09:00 0,0 C 0 % 1035,2 hPa 0,0 l/m 0,0 km/h N -60,0 C 0,0 C 0,0 km/h
23.01.2020 10:00 0,0 C 0 % 1035,4 hPa 0,0 l/m 0,0 km/h N -60,0 C 0,0 C 0,0 km/h
23.01.2020 11:00 0,0 C 0 % 1034,6 hPa 0,0 l/m 0,0 km/h N -60,0 C 0,0 C 0,0 km/h
23.01.2020 12:00 0,0 C 0 % 1033,7 hPa 0,0 l/m 0,0 km/h N -60,0 C 0,0 C 0,0 km/h
23.01.2020 13:00 0,0 C 0 % 1032,6 hPa 0,0 l/m 0,0 km/h N -60,0 C 0,0 C 0,0 km/h
23.01.2020 14:00 0,0 C 0 % 1031,5 hPa 0,0 l/m 0,0 km/h N -60,0 C 0,0 C 0,0 km/h
23.01.2020 15:00 0,0 C 0 % 1030,8 hPa 0,0 l/m 0,0 km/h N -60,0 C 0,0 C 0,0 km/h
23.01.2020 16:00 0,0 C 0 % 1030,1 hPa 0,0 l/m 0,0 km/h N -60,0 C 0,0 C 0,0 km/h
23.01.2020 17:00 0,0 C 0 % 1029,7 hPa 0,0 l/m 0,0 km/h N -60,0 C 0,0 C 0,0 km/h
23.01.2020 18:00 0,0 C 0 % 1029,1 hPa 0,0 l/m 0,0 km/h N -60,0 C 0,0 C 0,0 km/h
23.01.2020 19:00 0,0 C 0 % 1028,7 hPa 0,0 l/m 0,0 km/h N -60,0 C 0,0 C 0,0 km/h
23.01.2020 20:00 0,0 C 0 % 1028,2 hPa 0,0 l/m 0,0 km/h N -60,0 C 0,0 C 0,0 km/h
23.01.2020 21:00 0,0 C 0 % 1027,7 hPa 0,0 l/m 0,0 km/h N -60,0 C 0,0 C 0,0 km/h
23.01.2020 22:00 0,0 C 0 % 1027,2 hPa 0,0 l/m 0,0 km/h N -60,0 C 0,0 C 0,0 km/h
23.01.2020 23:00 0,0 C 0 % 1026,7 hPa 0,0 l/m 0,0 km/h N -60,0 C 0,0 C 0,0 km/h
24.01.2020 00:00 0,0 C 0 % 1026,2 hPa 0,0 l/m 0,0 km/h N -60,0 C 0,0 C 0,0 km/h
24.01.2020 01:00 0,0 C 0 % 1025,4 hPa 0,0 l/m 0,0 km/h N -60,0 C 0,0 C 0,0 km/h
24.01.2020 02:00 0,0 C 0 % 1024,9 hPa 0,0 l/m 0,0 km/h N -60,0 C 0,0 C 0,0 km/h
24.01.2020 03:00 0,0 C 0 % 1024,8 hPa 0,0 l/m 0,0 km/h N -60,0 C 0,0 C 0,0 km/h
24.01.2020 04:00 0,0 C 0 % 1025,1 hPa 0,0 l/m 0,0 km/h N -60,0 C 0,0 C 0,0 km/h
24.01.2020 05:00 0,0 C 0 % 1025,4 hPa 0,0 l/m 0,0 km/h N -60,0 C 0,0 C 0,0 km/h
24.01.2020 06:00 0,0 C 0 % 1025,6 hPa 0,0 l/m 0,0 km/h N -60,0 C 0,0 C 0,0 km/h
24.01.2020 07:00 0,0 C 0 % 1025,9 hPa 0,0 l/m 0,0 km/h N -60,0 C 0,0 C 0,0 km/h
24.01.2020 08:00 0,0 C 0 % 1026,1 hPa 0,0 l/m 0,0 km/h N -60,0 C 0,0 C 0,0 km/h
24.01.2020 09:00 0,0 C 0 % 1026,1 hPa 0,0 l/m 0,0 km/h N -60,0 C 0,0 C 0,0 km/h
24.01.2020 10:00 0,0 C 0 % 1026,1 hPa 0,0 l/m 0,0 km/h N -60,0 C 0,0 C 0,0 km/h
24.01.2020 11:00 0,0 C 0 % 1026,1 hPa 0,0 l/m 0,0 km/h N -60,0 C 0,0 C 0,0 km/h
24.01.2020 12:00 0,0 C 0 % 1025,4 hPa 0,0 l/m 0,0 km/h N -60,0 C 0,0 C 0,0 km/h
24.01.2020 13:00 0,0 C 0 % 1024,8 hPa 0,0 l/m 0,0 km/h N -60,0 C 0,0 C 0,0 km/h
24.01.2020 14:00 0,0 C 0 % 1023,9 hPa 0,0 l/m 0,0 km/h N -60,0 C 0,0 C 0,0 km/h
24.01.2020 15:00 0,0 C 0 % 1023,8 hPa 0,0 l/m 0,0 km/h N -60,0 C 0,0 C 0,0 km/h
24.01.2020 16:00 0,0 C 0 % 1023,6 hPa 0,0 l/m 0,0 km/h N -60,0 C 0,0 C 0,0 km/h
24.01.2020 17:00 0,0 C 0 % 1023,5 hPa 0,0 l/m 0,0 km/h N -60,0 C 0,0 C 0,0 km/h
24.01.2020 18:00 0,0 C 0 % 1023,4 hPa 0,0 l/m 0,0 km/h N -60,0 C 0,0 C 0,0 km/h
24.01.2020 19:00 0,0 C 0 % 1023,5 hPa 0,0 l/m 0,0 km/h N -60,0 C 0,0 C 0,0 km/h
24.01.2020 20:00 0,0 C 0 % 1023,7 hPa 0,0 l/m 0,0 km/h N -60,0 C 0,0 C 0,0 km/h
24.01.2020 21:00 0,0 C 0 % 1023,9 hPa 0,0 l/m 0,0 km/h N -60,0 C 0,0 C 0,0 km/h
24.01.2020 22:00 0,0 C 0 % 1023,8 hPa 0,0 l/m 0,0 km/h N -60,0 C 0,0 C 0,0 km/h
24.01.2020 23:00 0,0 C 0 % 1023,4 hPa 0,0 l/m 0,0 km/h N -60,0 C 0,0 C 0,0 km/h
25.01.2020 00:00 0,0 C 0 % 1022,9 hPa 0,0 l/m 0,0 km/h N -60,0 C 0,0 C 0,0 km/h
25.01.2020 01:00 0,0 C 0 % 1022,7 hPa 0,0 l/m 0,0 km/h N -60,0 C 0,0 C 0,0 km/h
25.01.2020 02:00 0,0 C 0 % 1022,5 hPa 0,0 l/m 0,0 km/h N -60,0 C 0,0 C 0,0 km/h
25.01.2020 03:00 0,0 C 0 % 1022,3 hPa 0,0 l/m 0,0 km/h N -60,0 C 0,0 C 0,0 km/h
25.01.2020 04:00 0,0 C 0 % 1022,2 hPa 0,0 l/m 0,0 km/h N -60,0 C 0,0 C 0,0 km/h
25.01.2020 05:00 0,0 C 0 % 1022,2 hPa 0,0 l/m 0,0 km/h N -60,0 C 0,0 C 0,0 km/h
25.01.2020 06:00 0,0 C 0 % 1022,0 hPa 0,0 l/m 0,0 km/h N -60,0 C 0,0 C 0,0 km/h
25.01.2020 07:00 0,0 C 0 % 1022,3 hPa 0,0 l/m 0,0 km/h N -60,0 C 0,0 C 0,0 km/h
25.01.2020 08:00 0,0 C 0 % 1022,8 hPa 0,0 l/m 0,0 km/h N -60,0 C 0,0 C 0,0 km/h
25.01.2020 09:00 0,0 C 0 % 1023,0 hPa 0,0 l/m 0,0 km/h N -60,0 C 0,0 C 0,0 km/h
25.01.2020 10:00 0,0 C 0 % 1023,3 hPa 0,0 l/m 0,0 km/h N -60,0 C 0,0 C 0,0 km/h
25.01.2020 11:00 0,0 C 0 % 1023,4 hPa 0,0 l/m 0,0 km/h N -60,0 C 0,0 C 0,0 km/h
25.01.2020 12:00 0,0 C 0 % 1023,0 hPa 0,0 l/m 0,0 km/h N -60,0 C 0,0 C 0,0 km/h
25.01.2020 13:00 0,0 C 0 % 1022,7 hPa 0,0 l/m 0,0 km/h N -60,0 C 0,0 C 0,0 km/h
25.01.2020 14:00 0,0 C 0 % 1022,2 hPa 0,0 l/m 0,0 km/h N -60,0 C 0,0 C 0,0 km/h
25.01.2020 15:00 0,0 C 0 % 1022,0 hPa 0,0 l/m 0,0 km/h N -60,0 C 0,0 C 0,0 km/h
25.01.2020 16:00 0,0 C 0 % 1021,8 hPa 0,0 l/m 0,0 km/h N -60,0 C 0,0 C 0,0 km/h
25.01.2020 17:00 0,0 C 0 % 1022,0 hPa 0,0 l/m 0,0 km/h N -60,0 C 0,0 C 0,0 km/h
25.01.2020 18:00 0,0 C 0 % 1022,2 hPa 0,0 l/m 0,0 km/h N -60,0 C 0,0 C 0,0 km/h
25.01.2020 19:00 0,0 C 0 % 1022,4 hPa 0,0 l/m 0,0 km/h N -60,0 C 0,0 C 0,0 km/h
25.01.2020 20:00 0,0 C 0 % 1022,6 hPa 0,0 l/m 0,0 km/h N -60,0 C 0,0 C 0,0 km/h
25.01.2020 21:00 0,0 C 0 % 1022,5 hPa 0,0 l/m 0,0 km/h N -60,0 C 0,0 C 0,0 km/h
25.01.2020 22:00 0,0 C 0 % 1022,4 hPa 0,0 l/m 0,0 km/h N -60,0 C 0,0 C 0,0 km/h
25.01.2020 23:00 0,0 C 0 % 1022,5 hPa 0,0 l/m 0,0 km/h N -60,0 C 0,0 C 0,0 km/h
26.01.2020 00:00 0,0 C 0 % 1022,3 hPa 0,0 l/m 0,0 km/h N -60,0 C 0,0 C 0,0 km/h
26.01.2020 01:00 0,0 C 0 % 1021,8 hPa 0,0 l/m 0,0 km/h N -60,0 C 0,0 C 0,0 km/h
26.01.2020 02:00 0,0 C 0 % 1021,9 hPa 0,0 l/m 0,0 km/h N -60,0 C 0,0 C 0,0 km/h
26.01.2020 03:00 0,0 C 0 % 1021,6 hPa 0,0 l/m 0,0 km/h N -60,0 C 0,0 C 0,0 km/h
26.01.2020 04:00 0,0 C 0 % 1021,3 hPa 0,0 l/m 0,0 km/h N -60,0 C 0,0 C 0,0 km/h
26.01.2020 05:00 0,0 C 0 % 1021,3 hPa 0,0 l/m 0,0 km/h N -60,0 C 0,0 C 0,0 km/h
26.01.2020 06:00 0,0 C 0 % 1021,3 hPa 0,0 l/m 0,0 km/h N -60,0 C 0,0 C 0,0 km/h
26.01.2020 07:00 0,0 C 0 % 1021,5 hPa 0,0 l/m 0,0 km/h N -60,0 C 0,0 C 0,0 km/h
26.01.2020 08:00 0,0 C 0 % 1021,8 hPa 0,0 l/m 0,0 km/h N -60,0 C 0,0 C 0,0 km/h
26.01.2020 09:00 0,0 C 0 % 1021,8 hPa 0,0 l/m 0,0 km/h N -60,0 C 0,0 C 0,0 km/h
26.01.2020 10:00 -0,6 C 41 % 1022,6 hPa 0,0 l/m 0,0 km/h N -32,0 C -0,6 C 0,8 km/h
26.01.2020 13:00 -1,3 C 82 % 1020,7 hPa 0,0 l/m 0,0 km/h N -4,0 C -1,3 C 1,6 km/h
26.01.2020 14:00 -0,8 C 82 % 1021,2 hPa 0,0 l/m 0,0 km/h N -3,5 C -0,8 C 0,0 km/h
26.01.2020 15:00 -0,4 C 82 % 1021,8 hPa 0,0 l/m 0,0 km/h N -3,0 C -0,4 C 0,8 km/h
26.01.2020 16:00 -0,4 C 82 % 1021,7 hPa 0,0 l/m 0,0 km/h N -3,1 C -0,4 C 0,0 km/h
26.01.2020 17:00 -0,7 C 82 % 1021,8 hPa 0,0 l/m 0,0 km/h N -3,4 C -0,7 C 0,0 km/h
26.01.2020 18:00 -0,9 C 82 % 1021,7 hPa 0,0 l/m 0,0 km/h N -3,5 C -0,9 C 0,0 km/h
26.01.2020 19:00 -1,0 C 82 % 1020,3 hPa 0,0 l/m 0,0 km/h N -3,7 C -1,0 C 0,0 km/h
26.01.2020 20:00 -1,1 C 82 % 1021,7 hPa 0,0 l/m 0,0 km/h N -3,8 C -1,1 C 0,0 km/h
26.01.2020 21:00 -1,2 C 82 % 1020,8 hPa 0,0 l/m 0,0 km/h N -3,8 C -1,2 C 0,0 km/h
26.01.2020 22:00 -1,2 C 82 % 1020,7 hPa 0,0 l/m 0,0 km/h N -3,9 C -1,2 C 0,0 km/h
26.01.2020 23:00 -1,3 C 82 % 1021,2 hPa 0,0 l/m 0,0 km/h N -3,9 C -1,3 C 0,0 km/h
Min-Datum _ 21.01.20 22.01.20 26.01.20 - 20.01.20 - 22.01.20 21.01.20 20.01.20
_ Min-Zeit 06:15 14:00 22:00 - 15:45 - 14:00 06:15 15:45
Minimum _ -3,1 C 0 % 1019,9 hPa - 0,0 km/h - -60,0 C -3,1 C 0,0 km/h
Max-Datum _ 20.01.20 20.01.20 20.01.20 20.01.20 22.01.20 - 20.01.20 20.01.20 20.01.20
_ Max-Zeit 13:30 12:15 20:00 02:00 08:45 - 13:15 13:15 13:30
Maximum _ 4,2 C 83 % 1047,1 hPa 0,5 l/m 7,7 km/h
N
- 1,3 C 4,1 C 19,3 km/h
N
Durchschnitt _ -0,0 C 36 % 1031,7 hPa #1,6 l/m 0,4 km/h N -34,7 C -0,0 C 1,4 km/h